Time;durP1;ratioP1;P1;durP2;ratioP2;P2;SDS_P1;SDS_P2;PMS_P1;PMS_P2;Temp;Humidity;BMP_temperature;BMP_pressure;BME280_temperature;BME280_humidity;BME280_pressure;Samples;Min_cycle;Max_cycle;Signal;HPM_P1;HPM_P2
2021/11/07 00:04:36;;;;;;;16.90;3.70;;;;;;;14.43;71.99;101747.88;4997502;28;20038;-60
2021/11/07 00:09:35;;;;;;;18.02;3.40;;;;;;;14.40;72.31;101744.31;4997982;28;20037;-58
2021/11/07 00:12:11;;;;;;;13.57;3.28;;;;;;;14.49;71.83;101747.06;4993286;28;20660;-58
2021/11/07 00:14:37;;;;;;;14.15;3.55;;;;;;;14.48;71.86;101753.16;4994320;28;20182;-58
2021/11/07 00:17:02;;;;;;;17.02;3.67;;;;;;;14.49;71.93;101741.81;4992200;28;20049;-58
2021/11/07 00:19:41;;;;;;;13.07;3.35;;;;;;;14.53;72.17;101744.47;4992217;28;20068;-58
2021/11/07 00:22:34;;;;;;;15.38;3.78;;;;;;;14.51;72.05;101753.22;4997507;28;20083;-59
2021/11/07 00:25:04;;;;;;;17.63;3.85;;;;;;;14.47;72.13;101747.03;4992472;28;20041;-60
2021/11/07 00:27:38;;;;;;;18.27;4.13;;;;;;;14.52;72.10;101742.69;4991248;28;20068;-59
2021/11/07 00:37:53;;;;;;;20.38;4.43;;;;;;;14.68;72.02;101756.88;4984018;28;20131;-59
2021/11/07 00:45:27;;;;;;;17.30;4.85;;;;;;;14.81;71.62;101755.28;4989272;28;20045;-57
2021/11/07 00:48:05;;;;;;;20.05;5.25;;;;;;;14.71;72.15;101745.53;4993389;28;20148;-58
2021/11/07 00:56:05;;;;;;;18.10;4.95;;;;;;;14.81;72.00;101727.28;4997305;28;19942;-59
2021/11/07 00:58:40;;;;;;;19.60;5.00;;;;;;;14.74;72.56;101724.56;4992976;28;20048;-59
2021/11/07 01:01:12;;;;;;;17.27;4.93;;;;;;;14.75;72.26;101713.22;4998253;28;20326;-59
2021/11/07 01:03:38;;;;;;;20.85;5.20;;;;;;;14.72;72.44;101727.16;4975894;28;20045;-59
2021/11/07 01:06:04;;;;;;;18.42;5.18;;;;;;;14.69;72.50;101719.28;5017014;28;20076;-59
2021/11/07 01:08:30;;;;;;;19.60;5.32;;;;;;;14.72;72.51;101711.44;4985380;28;20088;-58
2021/11/07 01:10:57;;;;;;;15.93;5.20;;;;;;;14.76;72.55;101707.09;4986754;28;20570;-59
2021/11/07 01:13:23;;;;;;;19.40;5.43;;;;;;;14.69;72.94;101721.03;4998027;28;20045;-57
2021/11/07 01:15:49;;;;;;;19.15;5.30;;;;;;;14.70;73.22;101715.78;4995854;28;20330;-58
2021/11/07 01:18:14;;;;;;;16.88;5.00;;;;;;;14.74;72.89;101717.59;5001090;28;20136;-58
2021/11/07 01:20:39;;;;;;;21.48;6.03;;;;;;;14.78;72.92;101723.72;4998035;28;20318;-58
2021/11/07 01:25:34;;;;;;;21.20;5.97;;;;;;;14.64;73.77;101694.72;4996726;28;20596;-58
2021/11/07 01:28:01;;;;;;;16.73;5.55;;;;;;;14.67;73.62;101701.75;4992335;28;20045;-59
2021/11/07 01:30:28;;;;;;;20.45;6.10;;;;;;;14.55;74.30;101702.50;4991261;28;20049;-59
2021/11/07 01:33:02;;;;;;;24.55;6.03;;;;;;;14.61;73.96;101695.59;4987028;28;20049;-57
2021/11/07 01:40:37;;;;;;;23.27;5.90;;;;;;;14.58;74.23;101705.16;4993626;28;20046;-59
2021/11/07 01:43:02;;;;;;;17.95;5.80;;;;;;;14.70;73.95;101707.03;4991449;28;20382;-58
2021/11/07 01:45:39;;;;;;;23.30;6.30;;;;;;;14.67;73.97;101701.75;4994629;28;20425;-58
2021/11/07 01:48:09;;;;;;;18.17;6.00;;;;;;;14.63;74.01;101700.84;4990649;28;20448;-59
2021/11/07 01:50:41;;;;;;;23.85;5.97;;;;;;;14.63;74.04;101697.34;4993045;28;20400;-59
2021/11/07 01:53:18;;;;;;;20.23;5.65;;;;;;;14.67;73.74;101701.75;4989297;28;20741;-59
2021/11/07 01:55:44;;;;;;;18.42;5.80;;;;;;;14.54;74.20;101693.75;4995020;28;20041;-58
2021/11/07 01:58:09;;;;;;;17.50;5.85;;;;;;;14.61;73.83;101692.06;4992420;28;20139;-58
2021/11/07 02:00:35;;;;;;;19.52;5.28;;;;;;;14.57;73.54;101679.81;4993823;28;20582;-58
2021/11/07 02:03:00;;;;;;;18.85;5.43;;;;;;;14.58;73.07;101678.91;4991629;28;20041;-57
2021/11/07 02:05:26;;;;;;;20.70;5.32;;;;;;;14.72;72.85;101679.03;5027196;28;20532;-58
2021/11/07 02:07:52;;;;;;;17.98;4.97;;;;;;;14.70;72.71;101668.53;4999340;28;20041;-58
2021/11/07 02:10:18;;;;;;;16.23;5.05;;;;;;;14.70;72.85;101663.28;4999570;28;20046;-58
2021/11/07 02:12:45;;;;;;;15.23;4.72;;;;;;;14.74;72.70;101651.97;4996719;28;20366;-58
2021/11/07 02:15:13;;;;;;;17.73;5.32;;;;;;;14.74;72.65;101658.94;4989888;28;20045;-58
2021/11/07 02:17:40;;;;;;;18.40;5.20;;;;;;;14.74;72.71;101667.72;4998626;28;20053;-59
2021/11/07 02:20:09;;;;;;;18.38;5.15;;;;;;;14.60;72.99;101653.56;4994993;28;20505;-59
2021/11/07 02:22:36;;;;;;;13.57;5.00;;;;;;;14.62;72.85;101641.34;4993683;28;20042;-58
2021/11/07 02:25:02;;;;;;;17.92;5.28;;;;;;;14.67;72.52;101655.41;4986902;28;20515;-59
2021/11/07 02:27:28;;;;;;;15.40;4.88;;;;;;;14.76;72.48;101665.09;5002022;28;20887;-58
2021/11/07 02:29:53;;;;;;;18.05;4.95;;;;;;;14.67;72.61;101672.88;4996690;28;20117;-58
2021/11/07 02:32:19;;;;;;;17.40;4.80;;;;;;;14.49;72.95;101656.09;5014447;28;20042;-60
2021/11/07 02:34:45;;;;;;;19.58;4.72;;;;;;;14.58;72.86;101657.91;4999842;28;20484;-61
2021/11/07 02:37:12;;;;;;;12.95;4.43;;;;;;;14.68;72.43;101646.66;4988370;28;23237;-59
2021/11/07 02:39:38;;;;;;;16.13;4.93;;;;;;;14.68;72.42;101646.66;4998267;28;20489;-58
2021/11/07 02:42:05;;;;;;;16.25;5.00;;;;;;;14.64;72.53;101646.63;4995366;28;20095;-58
2021/11/07 02:44:44;;;;;;;17.02;4.85;;;;;;;14.67;72.24;101646.63;5029963;28;20139;-59
2021/11/07 02:47:11;;;;;;;12.90;4.18;;;;;;;14.59;71.56;101647.44;4993813;28;21752;-58
2021/11/07 02:49:37;;;;;;;13.05;4.20;;;;;;;14.58;70.90;101650.94;4978536;28;20509;-59
2021/11/07 02:52:05;;;;;;;14.20;3.72;;;;;;;14.51;70.69;101654.38;4997264;28;20045;-58
2021/11/07 02:54:32;;;;;;;12.60;3.65;;;;;;;14.44;70.56;101646.44;4999471;28;20081;-59
2021/11/07 02:56:58;;;;;;;15.05;4.10;;;;;;;14.38;70.52;101644.63;4989969;28;20079;-59
2021/11/07 02:59:26;;;;;;;12.52;3.83;;;;;;;14.39;70.62;101641.16;4992399;28;20037;-59
2021/11/07 03:01:54;;;;;;;15.18;4.20;;;;;;;14.23;70.50;101652.28;4993354;28;20072;-58
2021/11/07 03:04:20;;;;;;;13.82;4.40;;;;;;;14.32;70.69;101654.16;4993693;28;20120;-57
2021/11/07 03:06:46;;;;;;;13.20;3.97;;;;;;;14.30;70.11;101653.22;4994869;28;20056;-58
2021/11/07 03:09:18;;;;;;;17.67;4.07;;;;;;;14.26;69.55;101665.44;4995694;28;20072;-57
2021/11/07 03:11:43;;;;;;;16.50;4.10;;;;;;;14.31;69.53;101657.63;4995875;28;20184;-58
2021/11/07 03:14:17;;;;;;;15.88;4.40;;;;;;;14.28;67.90;101674.19;4994481;28;20038;-58
2021/11/07 03:16:43;;;;;;;12.73;3.60;;;;;;;14.11;66.75;101655.66;4995496;28;20134;-58
2021/11/07 03:19:11;;;;;;;13.98;3.45;;;;;;;14.17;65.46;101668.84;5022655;28;20283;-59
2021/11/07 03:21:36;;;;;;;13.85;2.95;;;;;;;14.05;64.89;101671.31;4997041;28;20060;-58
2021/11/07 03:24:02;;;;;;;18.67;2.95;;;;;;;13.97;61.62;101672.97;4996287;28;20233;-58
2021/11/07 03:26:29;;;;;;;16.67;2.70;;;;;;;13.81;60.46;101673.63;5001544;28;20064;-59
2021/11/07 03:29:00;;;;;;;11.55;2.22;;;;;;;13.89;61.24;101669.38;4990798;28;20033;-58
2021/11/07 03:34:18;;;;;;;20.00;2.85;;;;;;;13.74;60.51;101664.81;4994865;28;20039;-56
2021/11/07 03:36:49;;;;;;;17.50;2.53;;;;;;;13.74;59.66;101667.44;5001288;28;20061;-58
2021/11/07 03:39:15;;;;;;;15.45;2.35;;;;;;;13.65;61.16;101661.22;5006984;28;20048;-58
2021/11/07 03:41:41;;;;;;;11.90;2.40;;;;;;;13.65;59.21;101648.09;5002097;28;20041;-58
2021/11/07 03:44:06;;;;;;;14.75;2.53;;;;;;;13.64;60.93;101654.19;4997586;28;20068;-59
2021/11/07 03:46:32;;;;;;;13.07;2.42;;;;;;;13.65;59.38;101641.13;5000177;28;20060;-59
2021/11/07 03:48:58;;;;;;;11.88;2.20;;;;;;;13.58;59.26;101636.66;4991213;28;20049;-59
2021/11/07 03:51:24;;;;;;;14.35;2.28;;;;;;;13.50;59.94;101645.25;4998146;28;20046;-57
2021/11/07 03:53:50;;;;;;;15.52;2.30;;;;;;;13.32;60.05;101651.13;4995245;28;20046;-58
2021/11/07 03:56:16;;;;;;;17.02;2.40;;;;;;;13.29;60.20;101631.03;4993539;28;20042;-58
2021/11/07 03:58:42;;;;;;;18.77;2.40;;;;;;;13.20;60.74;101625.66;4995706;28;20030;-58
2021/11/07 04:01:09;;;;;;;19.48;2.92;;;;;;;13.25;60.66;101630.94;4996799;28;21967;-59
2021/11/07 04:03:35;;;;;;;10.52;2.72;;;;;;;13.19;60.40;101639.59;4998415;28;20468;-58
2021/11/07 04:06:00;;;;;;;16.85;2.58;;;;;;;13.20;60.66;101635.22;4999286;28;20436;-59
2021/11/07 04:08:26;;;;;;;16.95;2.42;;;;;;;13.18;61.21;101642.19;4997410;28;20125;-58
2021/11/07 04:10:51;;;;;;;14.02;2.60;;;;;;;13.17;61.89;101643.94;4988691;28;20372;-58
2021/11/07 04:13:16;;;;;;;14.52;2.60;;;;;;;13.08;61.80;101648.09;4997759;28;20500;-58
2021/11/07 04:15:43;;;;;;;16.77;2.92;;;;;;;13.19;62.36;101642.22;4995641;28;20132;-59
2021/11/07 04:18:08;;;;;;;19.35;3.28;;;;;;;13.32;61.89;101651.13;4994356;28;20105;-58
2021/11/07 04:20:34;;;;;;;15.95;3.33;;;;;;;13.43;62.15;101646.03;4999445;28;20131;-58
2021/11/07 04:22:59;;;;;;;18.13;3.20;;;;;;;13.46;62.59;101633.88;4996740;28;20161;-58
2021/11/07 04:25:25;;;;;;;17.90;3.40;;;;;;;13.46;63.03;101640.84;4999841;28;20092;-58
2021/11/07 04:27:51;;;;;;;17.40;3.42;;;;;;;13.45;62.82;101649.56;4997255;28;20045;-58
2021/11/07 04:30:16;;;;;;;15.85;3.10;;;;;;;13.46;62.25;101640.84;4996196;28;20401;-59
2021/11/07 04:32:42;;;;;;;22.42;3.50;;;;;;;13.44;63.13;101638.22;4996680;28;20129;-59
2021/11/07 04:35:08;;;;;;;13.27;3.17;;;;;;;13.39;63.03;101650.38;5010603;28;20041;-58
2021/11/07 04:37:38;;;;;;;17.65;3.28;;;;;;;13.27;63.52;101663.28;5000618;28;20250;-58
2021/11/07 04:40:04;;;;;;;14.38;3.17;;;;;;;13.34;61.86;101647.69;4996484;28;20092;-59
2021/11/07 04:42:30;;;;;;;20.17;3.30;;;;;;;13.36;61.20;101635.47;4997907;28;20120;-59
2021/11/07 04:44:55;;;;;;;25.00;3.30;;;;;;;13.34;59.90;101644.19;4986939;28;20148;-59
2021/11/07 04:47:20;;;;;;;18.25;3.45;;;;;;;13.27;60.59;101644.94;4988582;28;20046;-59
2021/11/07 04:49:46;;;;;;;15.52;3.13;;;;;;;13.18;61.14;101621.22;4998805;28;20059;-58
2021/11/07 04:52:11;;;;;;;12.68;2.78;;;;;;;13.08;61.14;101630.66;4995293;28;20595;-57
2021/11/07 04:54:37;;;;;;;12.23;2.67;;;;;;;12.91;62.02;101645.22;5001914;28;20050;-58
2021/11/07 04:57:02;;;;;;;20.83;3.47;;;;;;;12.92;61.35;101654.84;4987489;28;20493;-58
2021/11/07 04:59:28;;;;;;;26.52;3.13;;;;;;;12.91;60.91;101640.88;4994998;28;20061;-58
2021/11/07 05:01:55;;;;;;;17.02;3.10;;;;;;;12.95;61.13;101633.94;4996552;28;20044;-58
2021/11/07 05:04:20;;;;;;;15.40;2.80;;;;;;;12.97;59.61;101630.50;5000288;28;20029;-56
2021/11/07 05:06:49;;;;;;;13.68;2.85;;;;;;;13.07;59.89;101644.59;4996394;28;20054;-57
2021/11/07 05:09:15;;;;;;;19.65;2.85;;;;;;;13.09;58.99;101640.28;4991755;28;20049;-57
2021/11/07 05:11:42;;;;;;;16.95;2.60;;;;;;;13.07;59.51;101639.38;4999324;28;20409;-57
2021/11/07 05:14:08;;;;;;;18.35;2.80;;;;;;;13.00;59.28;101641.00;4996872;28;20251;-58
2021/11/07 05:16:33;;;;;;;17.08;2.63;;;;;;;12.86;58.78;101644.28;4993852;28;20050;-59
2021/11/07 05:18:58;;;;;;;19.73;2.95;;;;;;;12.78;59.04;101640.66;4989228;28;20389;-58
2021/11/07 05:21:24;;;;;;;19.25;3.25;;;;;;;12.75;59.10;101645.81;4997406;28;20049;-60
2021/11/07 05:23:49;;;;;;;17.40;3.00;;;;;;;12.67;59.17;101643.09;4998991;28;20516;-59
2021/11/07 05:26:15;;;;;;;13.13;2.50;;;;;;;12.62;59.40;101644.75;4999501;28;21297;-60
2021/11/07 05:28:40;;;;;;;14.95;2.47;;;;;;;12.52;59.56;101646.31;4997239;28;20071;-57
2021/11/07 05:31:06;;;;;;;13.13;2.78;;;;;;;12.48;59.94;101649.75;4987916;28;20377;-58
2021/11/07 05:33:31;;;;;;;18.10;2.63;;;;;;;12.45;58.22;101654.91;5002705;28;20045;-57
2021/11/07 05:35:56;;;;;;;13.95;2.40;;;;;;;12.45;58.56;101657.50;5002181;28;20144;-57
2021/11/07 05:38:22;;;;;;;14.20;2.47;;;;;;;12.39;59.50;101646.06;5027378;28;20051;-57
2021/11/07 05:40:47;;;;;;;15.57;2.38;;;;;;;12.27;60.89;101651.06;5001828;28;20133;-59
2021/11/07 05:43:13;;;;;;;17.48;2.38;;;;;;;12.18;61.14;101664.84;4995472;28;20045;-57
2021/11/07 05:45:38;;;;;;;15.23;2.80;;;;;;;12.20;60.68;101660.53;5000301;28;20151;-58
2021/11/07 05:48:06;;;;;;;19.83;2.97;;;;;;;12.19;61.41;101657.06;4998802;28;20456;-58
2021/11/07 05:50:33;;;;;;;15.80;2.65;;;;;;;12.24;61.41;101653.63;5003224;28;20099;-57
2021/11/07 05:52:58;;;;;;;17.13;3.08;;;;;;;12.30;61.10;101659.88;4995021;28;20085;-59
2021/11/07 05:55:24;;;;;;;14.25;2.63;;;;;;;12.29;61.62;101657.22;5001995;28;20473;-57
2021/11/07 05:57:50;;;;;;;18.40;2.88;;;;;;;12.27;61.45;101656.28;5004780;28;20339;-57
2021/11/07 06:00:16;;;;;;;17.90;3.40;;;;;;;12.29;61.03;101665.94;4999554;28;20068;-58
2021/11/07 06:02:43;;;;;;;15.90;2.60;;;;;;;12.36;61.27;101673.06;4999894;28;20448;-59
2021/11/07 06:05:08;;;;;;;16.58;2.72;;;;;;;12.37;60.58;101674.81;4996096;28;20571;-58
2021/11/07 06:07:34;;;;;;;21.35;3.50;;;;;;;12.33;60.70;101679.94;4996796;28;20042;-59
2021/11/07 06:09:59;;;;;;;12.68;2.95;;;;;;;12.38;60.72;101673.94;5002026;28;20053;-59
2021/11/07 06:12:25;;;;;;;15.88;2.95;;;;;;;12.40;60.60;101676.59;5002210;28;20445;-58
2021/11/07 06:14:51;;;;;;;18.80;3.13;;;;;;;12.34;60.80;101669.50;4998214;28;20041;-62
2021/11/07 06:17:16;;;;;;;14.07;3.10;;;;;;;12.34;60.79;101666.91;4997745;28;20125;-58
2021/11/07 06:19:41;;;;;;;16.90;2.65;;;;;;;12.27;61.19;101659.78;4998214;28;20067;-59
2021/11/07 06:22:08;;;;;;;20.60;3.53;;;;;;;12.25;61.45;101674.59;5000410;28;20116;-57
2021/11/07 06:24:34;;;;;;;19.58;3.22;;;;;;;12.33;60.19;101677.31;5006887;28;20029;-59
2021/11/07 06:27:00;;;;;;;19.30;3.05;;;;;;;12.30;60.31;101680.78;4992205;28;20512;-58
2021/11/07 06:29:26;;;;;;;14.70;2.60;;;;;;;12.40;60.30;101676.59;5004407;28;20595;-58
2021/11/07 06:31:53;;;;;;;15.13;2.75;;;;;;;12.35;60.34;101668.66;5002693;28;20045;-58
2021/11/07 06:34:20;;;;;;;18.15;2.60;;;;;;;12.30;61.17;101669.44;4996358;28;20056;-58
2021/11/07 06:36:46;;;;;;;25.75;2.85;;;;;;;12.24;60.85;101682.38;4998984;28;20053;-58
2021/11/07 06:39:11;;;;;;;20.58;3.53;;;;;;;12.29;61.10;101680.75;4998200;28;20523;-58
2021/11/07 06:41:37;;;;;;;15.27;2.92;;;;;;;12.29;61.39;101683.34;5002654;28;20099;-58
2021/11/07 06:44:03;;;;;;;17.10;2.70;;;;;;;12.25;60.99;101681.53;4999345;28;20117;-58
2021/11/07 06:46:29;;;;;;;18.92;2.70;;;;;;;12.27;61.85;101682.44;4997070;28;20435;-56
2021/11/07 06:48:54;;;;;;;17.35;2.80;;;;;;;12.29;60.93;101689.47;4995704;28;20457;-58
2021/11/07 06:51:21;;;;;;;19.40;3.00;;;;;;;12.24;60.89;101683.28;5003260;28;20351;-58
2021/11/07 06:53:48;;;;;;;17.75;2.90;;;;;;;12.21;60.78;101693.66;4993666;28;20582;-59
2021/11/07 06:56:13;;;;;;;21.63;2.85;;;;;;;12.14;61.09;101686.53;4999553;28;20045;-59
2021/11/07 06:58:39;;;;;;;14.95;2.30;;;;;;;12.05;61.34;101689.00;5005348;28;20412;-58
2021/11/07 07:01:05;;;;;;;16.63;2.83;;;;;;;12.02;60.85;101694.13;4989901;28;20316;-58
2021/11/07 07:03:30;;;;;;;16.23;2.88;;;;;;;12.27;60.52;101688.53;4994386;28;20041;-59
2021/11/07 07:05:56;;;;;;;13.93;2.60;;;;;;;12.38;60.62;101686.16;5004737;28;20052;-57
2021/11/07 07:08:26;;;;;;;18.05;3.03;;;;;;;12.42;60.83;101690.59;4994719;28;20599;-59
2021/11/07 07:11:15;;;;;;;13.73;2.80;;;;;;;12.38;60.28;101678.31;4993039;28;20042;-59
2021/11/07 07:13:45;;;;;;;14.70;2.97;;;;;;;12.43;60.28;101684.50;4996615;28;20033;-58
2021/11/07 07:16:26;;;;;;;19.40;3.17;;;;;;;12.46;60.54;101689.78;4999162;28;20054;-58
2021/11/07 07:34:35;;;;;;;14.87;3.00;;;;;;;12.40;60.73;101695.78;5004921;28;20696;-58
2021/11/07 07:37:00;;;;;;;15.93;2.70;;;;;;;12.40;60.75;101689.66;4999707;28;20140;-58
2021/11/07 07:39:25;;;;;;;14.18;2.75;;;;;;;12.44;61.36;101701.97;5000748;28;20042;-60
2021/11/07 07:41:51;;;;;;;16.63;2.53;;;;;;;12.56;60.67;101703.06;4998462;28;20049;-59
2021/11/07 07:44:17;;;;;;;17.52;2.90;;;;;;;12.60;60.56;101697.03;5002090;28;20410;-58
2021/11/07 07:46:45;;;;;;;21.88;3.00;;;;;;;12.69;61.12;101698.91;4999451;28;20050;-57
2021/11/07 07:49:16;;;;;;;18.88;2.92;;;;;;;12.78;60.93;101701.72;4992126;28;20175;-57
2021/11/07 07:51:42;;;;;;;16.52;2.80;;;;;;;12.97;59.36;101705.53;4998502;28;20362;-57
2021/11/07 07:54:08;;;;;;;20.23;2.45;;;;;;;13.14;58.96;101709.34;5000623;28;20351;-58
2021/11/07 07:56:35;;;;;;;20.98;2.95;;;;;;;13.26;58.52;101714.78;4993790;28;20041;-59
2021/11/07 07:59:02;;;;;;;14.52;2.75;;;;;;;13.24;59.37;101713.84;4989955;28;20029;-59
2021/11/07 08:01:28;;;;;;;16.80;2.95;;;;;;;13.25;58.19;101719.97;5000237;28;20117;-58
2021/11/07 08:03:54;;;;;;;17.25;2.90;;;;;;;13.18;59.50;101718.09;4999841;28;20041;-58
2021/11/07 08:06:20;;;;;;;16.50;2.70;;;;;;;13.39;58.58;101721.97;4998345;28;20045;-57
2021/11/07 08:08:46;;;;;;;15.93;2.83;;;;;;;13.01;60.10;101713.44;4995634;28;20068;-57
2021/11/07 08:11:12;;;;;;;18.30;2.60;;;;;;;12.91;60.37;101716.78;4994742;28;20577;-59
2021/11/07 08:13:37;;;;;;;15.52;2.63;;;;;;;12.82;60.22;101708.75;4992419;28;20068;-58
2021/11/07 08:16:03;;;;;;;19.08;2.97;;;;;;;12.76;60.32;101716.50;4995331;28;20504;-58
2021/11/07 08:18:28;;;;;;;15.88;3.08;;;;;;;12.76;60.05;101713.00;4990777;28;20041;-57
2021/11/07 08:20:54;;;;;;;17.02;2.67;;;;;;;12.75;60.54;101716.47;4985513;28;20330;-58
2021/11/07 08:23:22;;;;;;;20.55;3.15;;;;;;;12.79;59.58;101716.56;4996513;28;20124;-58
2021/11/07 08:25:48;;;;;;;20.25;2.30;;;;;;;12.77;59.21;101718.25;4993044;28;20605;-59
2021/11/07 08:28:18;;;;;;;18.55;2.55;;;;;;;12.76;59.70;101708.66;5000107;28;20045;-58
2021/11/07 08:30:43;;;;;;;16.27;2.50;;;;;;;12.85;60.23;101714.06;5004238;28;20034;-58
2021/11/07 08:33:09;;;;;;;12.95;2.45;;;;;;;12.85;58.79;101716.69;4989539;28;20060;-59
2021/11/07 08:35:39;;;;;;;19.67;3.30;;;;;;;12.93;58.66;101717.66;4993296;28;20095;-58
2021/11/07 08:38:10;;;;;;;19.63;2.97;;;;;;;13.03;59.04;101718.72;4998391;28;20146;-58
2021/11/07 08:43:11;;;;;;;18.50;2.80;;;;;;;13.06;58.94;101720.50;4987451;28;20353;-60
2021/11/07 09:07:23;;;;;;;16.00;2.70;;;;;;;13.95;56.92;101721.88;4999862;28;20123;-58
2021/11/07 09:09:57;;;;;;;14.23;2.63;;;;;;;14.14;55.63;101730.88;4995533;28;20286;-58
2021/11/07 09:12:22;;;;;;;18.55;3.33;;;;;;;14.28;55.52;101718.78;4992202;28;20569;-56
2021/11/07 09:14:48;;;;;;;16.92;2.88;;;;;;;14.33;55.03;101721.47;4994124;28;20041;-57
2021/11/07 09:17:14;;;;;;;16.80;3.03;;;;;;;14.50;55.03;101726.09;4991470;28;20494;-56
2021/11/07 09:19:42;;;;;;;17.67;2.47;;;;;;;14.57;55.01;101722.66;4993910;28;20512;-57
2021/11/07 09:22:13;;;;;;;19.42;2.90;;;;;;;14.74;55.52;101717.59;4991097;28;20122;-57
2021/11/07 09:24:47;;;;;;;17.77;3.00;;;;;;;14.69;53.59;101716.66;4995775;28;20337;-58
2021/11/07 09:27:24;;;;;;;15.88;3.10;;;;;;;14.81;54.05;101731.66;4993563;28;20443;-58
2021/11/07 09:30:07;;;;;;;16.05;3.08;;;;;;;14.70;53.70;101721.00;4992569;28;20111;-58
2021/11/07 09:37:54;;;;;;;16.65;3.30;;;;;;;14.19;54.92;101734.44;4975682;28;20650;-58
2021/11/07 09:40:22;;;;;;;19.30;2.72;;;;;;;14.22;56.54;101730.09;4996297;28;20497;-56
2021/11/07 09:47:50;;;;;;;17.95;2.65;;;;;;;14.30;54.90;101732.81;4994416;28;20813;-57
2021/11/07 09:50:16;;;;;;;14.10;2.35;;;;;;;14.21;54.56;101736.19;4991786;28;20050;-56
2021/11/07 09:52:48;;;;;;;17.65;2.67;;;;;;;14.26;54.60;101738.88;4995803;28;20042;-60
2021/11/07 09:55:15;;;;;;;20.65;2.88;;;;;;;14.16;55.48;101734.38;4995422;28;20042;-59
2021/11/07 09:57:41;;;;;;;20.80;3.38;;;;;;;14.38;54.91;101739.06;4988423;28;20607;-58
2021/11/07 10:00:14;;;;;;;18.70;2.88;;;;;;;14.37;54.65;101737.31;4986897;28;20422;-59
2021/11/07 10:02:40;;;;;;;22.63;2.50;;;;;;;14.33;53.09;101731.97;4995270;28;20046;-58
2021/11/07 10:05:07;;;;;;;13.15;2.53;;;;;;;14.49;53.72;101739.19;4984838;28;20917;-58
2021/11/07 10:07:35;;;;;;;17.17;3.15;;;;;;;14.65;54.37;101742.84;4986450;28;20061;-58
2021/11/07 10:10:15;;;;;;;16.83;2.78;;;;;;;14.83;53.47;101730.78;4998475;28;20073;-58
2021/11/07 10:12:47;;;;;;;16.83;2.67;;;;;;;14.92;53.20;101741.38;4994971;28;20201;-59
2021/11/07 10:15:30;;;;;;;19.42;2.65;;;;;;;15.15;53.42;101743.31;4990734;28;20493;-58
2021/11/07 10:18:00;;;;;;;12.40;2.83;;;;;;;15.37;52.29;101745.25;4993734;28;20531;-59
2021/11/07 10:23:04;;;;;;;12.07;2.22;;;;;;;15.48;52.45;101751.47;4990325;28;20065;-58
2021/11/07 10:25:37;;;;;;;16.23;2.65;;;;;;;15.17;52.56;101744.22;4995752;28;20041;-58
2021/11/07 10:28:22;;;;;;;16.40;2.83;;;;;;;15.06;52.92;101727.50;4995434;28;20111;-60
2021/11/07 10:31:10;;;;;;;12.70;2.65;;;;;;;14.93;52.57;101731.75;4995633;28;20048;-59
2021/11/07 10:45:22;;;;;;;18.10;3.17;;;;;;;14.77;54.54;101740.34;4988555;28;20403;-60
2021/11/07 10:53:25;;;;;;;25.17;3.40;;;;;;;14.83;53.93;101733.41;4996667;28;20583;-64
2021/11/07 10:56:02;;;;;;;20.65;3.08;;;;;;;14.83;54.04;101735.16;4997135;28;20143;-58
2021/11/07 10:58:48;;;;;;;15.75;2.90;;;;;;;14.70;53.19;101733.28;4991100;28;20042;-57
2021/11/07 11:01:21;;;;;;;16.98;3.00;;;;;;;14.71;54.39;101727.16;4988516;28;20446;-58
2021/11/07 11:03:58;;;;;;;21.30;3.05;;;;;;;14.53;54.55;101735.72;5000021;28;20501;-59
2021/11/07 11:06:23;;;;;;;18.58;2.80;;;;;;;14.52;54.46;101728.69;5000518;28;20042;-59
2021/11/07 11:09:03;;;;;;;20.77;3.38;;;;;;;14.46;54.15;101731.25;4994938;28;20055;-58
2021/11/07 11:11:55;;;;;;;21.02;3.40;;;;;;;14.34;54.87;101710.97;4991586;28;20093;-57
2021/11/07 11:14:27;;;;;;;19.98;2.78;;;;;;;14.10;53.74;101731.66;5015576;28;20128;-59
2021/11/07 11:20:03;;;;;;;18.05;2.85;;;;;;;14.55;53.46;101740.13;4993254;28;20565;-58
2021/11/07 11:25:26;;;;;;;16.08;3.20;;;;;;;14.82;53.29;101733.41;4986694;28;20060;-57
2021/11/07 11:28:07;;;;;;;18.80;2.83;;;;;;;14.94;53.38;101733.53;4999668;28;20449;-57
2021/11/07 11:30:53;;;;;;;20.17;3.10;;;;;;;14.95;52.34;101741.41;4986236;28;20042;-58
2021/11/07 11:33:43;;;;;;;25.08;3.78;;;;;;;15.19;52.50;101735.47;4984005;28;20223;-59
2021/11/07 11:38:53;;;;;;;18.90;3.28;;;;;;;15.32;52.89;101745.22;4992356;28;20041;-59
2021/11/07 11:43:48;;;;;;;20.95;3.30;;;;;;;15.27;52.23;101732.91;5002097;28;20045;-57
2021/11/07 11:46:24;;;;;;;19.65;3.28;;;;;;;15.17;52.23;101746.84;5011939;28;20762;-58
2021/11/07 12:02:41;;;;;;;23.77;3.38;;;;;;;14.59;53.50;101733.16;4992960;28;20634;-57
2021/11/07 12:05:28;;;;;;;28.55;3.50;;;;;;;14.43;54.22;101728.63;4985302;28;20843;-58
2021/11/07 12:10:38;;;;;;;26.55;3.75;;;;;;;14.65;54.35;101732.34;4992121;28;20034;-59
2021/11/07 12:13:55;;;;;;;17.27;3.75;;;;;;;14.99;54.46;101730.06;4988942;28;20419;-58
2021/11/07 12:16:47;;;;;;;20.20;3.42;;;;;;;15.29;52.90;101721.56;4993187;28;20041;-59
2021/11/07 12:19:14;;;;;;;23.08;3.85;;;;;;;15.33;52.32;101723.34;4993502;28;20527;-58
2021/11/07 12:21:49;;;;;;;24.50;3.55;;;;;;;15.30;52.49;101728.59;4994042;28;20041;-58
2021/11/07 12:24:19;;;;;;;24.83;3.67;;;;;;;15.23;53.03;101728.50;4997731;28;20047;-58
2021/11/07 12:26:46;;;;;;;23.55;3.65;;;;;;;14.98;52.26;101728.31;4986503;28;20496;-59
2021/11/07 12:29:38;;;;;;;28.02;3.85;;;;;;;14.99;52.72;101726.56;4988957;28;20893;-59
2021/11/07 12:32:06;;;;;;;22.38;3.58;;;;;;;14.68;53.80;101725.41;4983078;28;20401;-61
2021/11/07 12:41:01;;;;;;;20.08;3.20;;;;;;;15.02;54.80;101722.22;4991703;28;20363;-57
2021/11/07 12:43:40;;;;;;;20.27;3.33;;;;;;;15.26;53.74;101724.16;4992589;28;20054;-59
2021/11/07 12:49:13;;;;;;;25.48;3.60;;;;;;;15.09;54.22;101728.41;4979461;28;20112;-58
2021/11/07 12:51:43;;;;;;;19.70;3.03;;;;;;;15.09;54.25;101723.13;4991002;28;20042;-59
2021/11/07 12:54:15;;;;;;;24.17;3.33;;;;;;;14.99;54.76;101722.19;4987311;28;20054;-59
2021/11/07 12:56:46;;;;;;;22.80;3.42;;;;;;;14.96;54.95;101732.66;4992388;28;20049;-59
2021/11/07 12:59:20;;;;;;;22.65;3.72;;;;;;;14.92;54.26;101728.25;4987159;28;20118;-58
2021/11/07 13:02:09;;;;;;;24.45;3.67;;;;;;;14.86;55.06;101740.44;4996429;28;20033;-59
2021/11/07 13:05:15;;;;;;;27.52;3.85;;;;;;;14.85;54.76;101736.06;4986033;28;20175;-57
2021/11/07 13:08:03;;;;;;;22.08;3.78;;;;;;;14.82;55.12;101728.16;4978315;28;20049;-58
2021/11/07 13:16:14;;;;;;;27.75;4.20;;;;;;;14.51;55.41;101725.22;4991304;28;20044;-58
2021/11/07 13:21:19;;;;;;;20.38;3.00;;;;;;;14.46;53.77;101731.25;4982110;28;20044;-60
2021/11/07 13:31:58;;;;;;;24.13;3.63;;;;;;;14.47;55.41;101730.41;4993528;28;20568;-59
2021/11/07 13:34:24;;;;;;;24.38;3.30;;;;;;;14.47;54.17;101735.66;4993774;28;20084;-58
2021/11/07 13:36:50;;;;;;;17.98;3.22;;;;;;;14.29;54.44;101732.78;4988148;28;20359;-58
2021/11/07 13:39:34;;;;;;;20.50;3.75;;;;;;;14.11;54.74;101736.06;4986920;28;20068;-58
2021/11/07 13:42:15;;;;;;;23.75;3.67;;;;;;;14.07;56.09;101735.16;4987408;28;20378;-58
2021/11/07 13:45:03;;;;;;;21.63;3.67;;;;;;;14.17;55.07;101737.03;4994924;28;20045;-58
2021/11/07 13:47:35;;;;;;;23.05;3.90;;;;;;;14.17;54.03;101730.91;4989027;28;20088;-58
2021/11/07 13:50:03;;;;;;;24.67;3.80;;;;;;;14.21;53.68;101738.81;4998326;28;20036;-57
2021/11/07 13:52:30;;;;;;;23.10;3.85;;;;;;;14.30;53.25;101722.31;4989157;28;20050;-60
2021/11/07 13:54:56;;;;;;;19.20;3.25;;;;;;;14.27;52.61;101734.53;5012983;28;20037;-60
2021/11/07 13:57:29;;;;;;;25.00;3.70;;;;;;;14.30;52.85;101740.69;4996430;28;20552;-58
2021/11/07 13:59:54;;;;;;;26.50;3.67;;;;;;;14.14;56.33;101743.97;4993744;28;20441;-57
2021/11/07 14:02:22;;;;;;;25.17;3.67;;;;;;;13.72;60.37;101746.91;4991971;28;20104;-57
2021/11/07 14:04:56;;;;;;;23.65;3.45;;;;;;;13.34;61.03;101754.19;4987612;28;20057;-57